sensor_id;sensor_type;location;lat;lon;timestamp;P1;durP1;ratioP1;P2;durP2;ratioP2
17917;SDS011;9084;50.956;3.106;2023-08-17T00:01:28;5.90;;;5.50;;
17917;SDS011;9084;50.956;3.106;2023-08-17T00:03:54;6.93;;;5.65;;
17917;SDS011;9084;50.956;3.106;2023-08-17T00:06:20;6.00;;;5.57;;
17917;SDS011;9084;50.956;3.106;2023-08-17T00:08:45;6.10;;;5.50;;
17917;SDS011;9084;50.956;3.106;2023-08-17T00:11:11;5.28;;;4.88;;
17917;SDS011;9084;50.956;3.106;2023-08-17T00:13:36;6.00;;;5.47;;
17917;SDS011;9084;50.956;3.106;2023-08-17T00:16:02;5.13;;;4.68;;
17917;SDS011;9084;50.956;3.106;2023-08-17T00:18:28;5.22;;;4.82;;
17917;SDS011;9084;50.956;3.106;2023-08-17T00:20:53;6.00;;;5.60;;
17917;SDS011;9084;50.956;3.106;2023-08-17T00:23:19;5.70;;;5.30;;
17917;SDS011;9084;50.956;3.106;2023-08-17T00:25:47;6.00;;;5.55;;
17917;SDS011;9084;50.956;3.106;2023-08-17T00:28:15;5.65;;;5.07;;
17917;SDS011;9084;50.956;3.106;2023-08-17T00:30:45;4.93;;;4.63;;
17917;SDS011;9084;50.956;3.106;2023-08-17T00:33:11;5.50;;;5.10;;
17917;SDS011;9084;50.956;3.106;2023-08-17T00:35:39;5.00;;;4.68;;
17917;SDS011;9084;50.956;3.106;2023-08-17T00:38:07;5.72;;;5.22;;
17917;SDS011;9084;50.956;3.106;2023-08-17T00:40:32;5.40;;;4.20;;
17917;SDS011;9084;50.956;3.106;2023-08-17T00:42:59;5.35;;;4.82;;
17917;SDS011;9084;50.956;3.106;2023-08-17T00:45:24;5.20;;;4.80;;
17917;SDS011;9084;50.956;3.106;2023-08-17T00:47:53;5.05;;;4.70;;
17917;SDS011;9084;50.956;3.106;2023-08-17T00:50:21;4.93;;;4.53;;
17917;SDS011;9084;50.956;3.106;2023-08-17T00:52:56;5.43;;;4.97;;
17917;SDS011;9084;50.956;3.106;2023-08-17T00:55:22;4.72;;;4.32;;
17917;SDS011;9084;50.956;3.106;2023-08-17T00:57:49;4.63;;;4.32;;
17917;SDS011;9084;50.956;3.106;2023-08-17T01:00:16;5.55;;;5.15;;
17917;SDS011;9084;50.956;3.106;2023-08-17T01:02:42;5.40;;;4.97;;
17917;SDS011;9084;50.956;3.106;2023-08-17T01:05:11;5.45;;;5.05;;
17917;SDS011;9084;50.956;3.106;2023-08-17T01:07:40;5.47;;;5.07;;
17917;SDS011;9084;50.956;3.106;2023-08-17T01:10:08;6.32;;;5.30;;
17917;SDS011;9084;50.956;3.106;2023-08-17T01:12:48;7.50;;;5.18;;
17917;SDS011;9084;50.956;3.106;2023-08-17T01:15:34;6.30;;;5.85;;
17917;SDS011;9084;50.956;3.106;2023-08-17T01:18:15;6.30;;;5.90;;
17917;SDS011;9084;50.956;3.106;2023-08-17T01:20:50;5.60;;;5.20;;
17917;SDS011;9084;50.956;3.106;2023-08-17T01:23:17;6.50;;;6.00;;
17917;SDS011;9084;50.956;3.106;2023-08-17T01:25:43;6.82;;;6.03;;
17917;SDS011;9084;50.956;3.106;2023-08-17T01:28:09;6.07;;;5.57;;
17917;SDS011;9084;50.956;3.106;2023-08-17T01:30:45;6.22;;;5.57;;
17917;SDS011;9084;50.956;3.106;2023-08-17T01:33:20;6.18;;;5.68;;
17917;SDS011;9084;50.956;3.106;2023-08-17T01:35:59;6.35;;;5.75;;
17917;SDS011;9084;50.956;3.106;2023-08-17T01:38:31;5.43;;;5.03;;
17917;SDS011;9084;50.956;3.106;2023-08-17T01:41:02;7.55;;;5.72;;
17917;SDS011;9084;50.956;3.106;2023-08-17T01:43:31;5.53;;;5.13;;
17917;SDS011;9084;50.956;3.106;2023-08-17T01:46:00;6.03;;;5.53;;
17917;SDS011;9084;50.956;3.106;2023-08-17T01:48:25;6.78;;;6.28;;
17917;SDS011;9084;50.956;3.106;2023-08-17T01:50:53;5.75;;;5.28;;
17917;SDS011;9084;50.956;3.106;2023-08-17T01:53:19;5.45;;;4.97;;
17917;SDS011;9084;50.956;3.106;2023-08-17T01:55:45;6.90;;;5.80;;
17917;SDS011;9084;50.956;3.106;2023-08-17T01:58:13;5.93;;;5.45;;
17917;SDS011;9084;50.956;3.106;2023-08-17T02:00:38;5.50;;;5.07;;
17917;SDS011;9084;50.956;3.106;2023-08-17T02:03:04;5.90;;;5.32;;
17917;SDS011;9084;50.956;3.106;2023-08-17T02:05:30;5.57;;;5.18;;
17917;SDS011;9084;50.956;3.106;2023-08-17T02:07:55;6.00;;;5.40;;
17917;SDS011;9084;50.956;3.106;2023-08-17T02:10:23;6.25;;;5.65;;
17917;SDS011;9084;50.956;3.106;2023-08-17T02:12:49;5.80;;;5.30;;
17917;SDS011;9084;50.956;3.106;2023-08-17T02:15:15;8.07;;;5.18;;
17917;SDS011;9084;50.956;3.106;2023-08-17T02:17:41;5.47;;;5.10;;
17917;SDS011;9084;50.956;3.106;2023-08-17T02:20:06;5.72;;;5.22;;
17917;SDS011;9084;50.956;3.106;2023-08-17T02:22:33;6.50;;;5.05;;
17917;SDS011;9084;50.956;3.106;2023-08-17T02:24:59;5.10;;;4.70;;
17917;SDS011;9084;50.956;3.106;2023-08-17T02:27:25;5.55;;;5.07;;
17917;SDS011;9084;50.956;3.106;2023-08-17T02:29:56;6.13;;;5.53;;
17917;SDS011;9084;50.956;3.106;2023-08-17T02:32:21;6.13;;;4.88;;
17917;SDS011;9084;50.956;3.106;2023-08-17T02:34:47;5.45;;;5.05;;
17917;SDS011;9084;50.956;3.106;2023-08-17T02:37:12;4.78;;;4.38;;
17917;SDS011;9084;50.956;3.106;2023-08-17T02:39:40;5.07;;;4.60;;
17917;SDS011;9084;50.956;3.106;2023-08-17T02:42:08;5.03;;;4.50;;
17917;SDS011;9084;50.956;3.106;2023-08-17T02:44:38;5.53;;;4.55;;
17917;SDS011;9084;50.956;3.106;2023-08-17T02:47:04;4.60;;;4.30;;
17917;SDS011;9084;50.956;3.106;2023-08-17T02:49:30;4.90;;;4.40;;
17917;SDS011;9084;50.956;3.106;2023-08-17T02:51:55;4.50;;;4.20;;
17917;SDS011;9084;50.956;3.106;2023-08-17T02:54:23;4.50;;;4.20;;
17917;SDS011;9084;50.956;3.106;2023-08-17T02:56:49;5.18;;;4.40;;
17917;SDS011;9084;50.956;3.106;2023-08-17T02:59:15;4.15;;;3.83;;
17917;SDS011;9084;50.956;3.106;2023-08-17T03:01:41;4.60;;;4.22;;
17917;SDS011;9084;50.956;3.106;2023-08-17T03:04:07;4.30;;;4.00;;
17917;SDS011;9084;50.956;3.106;2023-08-17T03:06:32;6.57;;;4.05;;
17917;SDS011;9084;50.956;3.106;2023-08-17T03:08:58;4.82;;;3.88;;
17917;SDS011;9084;50.956;3.106;2023-08-17T03:11:23;5.30;;;4.40;;
17917;SDS011;9084;50.956;3.106;2023-08-17T03:13:49;4.55;;;4.20;;
17917;SDS011;9084;50.956;3.106;2023-08-17T03:16:15;4.22;;;3.83;;
17917;SDS011;9084;50.956;3.106;2023-08-17T03:18:40;3.55;;;3.25;;
17917;SDS011;9084;50.956;3.106;2023-08-17T03:21:06;4.40;;;3.53;;
17917;SDS011;9084;50.956;3.106;2023-08-17T03:23:34;4.03;;;3.72;;
17917;SDS011;9084;50.956;3.106;2023-08-17T03:26:00;4.20;;;3.80;;
17917;SDS011;9084;50.956;3.106;2023-08-17T03:28:28;4.32;;;3.88;;
17917;SDS011;9084;50.956;3.106;2023-08-17T03:30:56;4.82;;;4.35;;
17917;SDS011;9084;50.956;3.106;2023-08-17T03:33:24;3.65;;;3.35;;
17917;SDS011;9084;50.956;3.106;2023-08-17T03:35:50;4.13;;;3.67;;
17917;SDS011;9084;50.956;3.106;2023-08-17T03:38:15;4.63;;;3.33;;
17917;SDS011;9084;50.956;3.106;2023-08-17T03:40:43;4.10;;;3.67;;
17917;SDS011;9084;50.956;3.106;2023-08-17T03:43:09;4.10;;;3.70;;
17917;SDS011;9084;50.956;3.106;2023-08-17T03:45:37;3.60;;;3.25;;
17917;SDS011;9084;50.956;3.106;2023-08-17T03:48:02;4.38;;;4.00;;
17917;SDS011;9084;50.956;3.106;2023-08-17T03:50:29;3.35;;;3.05;;
17917;SDS011;9084;50.956;3.106;2023-08-17T03:52:54;4.60;;;3.60;;
17917;SDS011;9084;50.956;3.106;2023-08-17T03:55:20;6.72;;;3.30;;
17917;SDS011;9084;50.956;3.106;2023-08-17T03:57:46;4.22;;;3.15;;
17917;SDS011;9084;50.956;3.106;2023-08-17T04:00:13;3.70;;;3.40;;
17917;SDS011;9084;50.956;3.106;2023-08-17T04:02:39;4.38;;;3.55;;
17917;SDS011;9084;50.956;3.106;2023-08-17T04:05:05;4.03;;;3.40;;
17917;SDS011;9084;50.956;3.106;2023-08-17T04:07:34;4.85;;;3.85;;
17917;SDS011;9084;50.956;3.106;2023-08-17T04:09:59;3.67;;;3.20;;
17917;SDS011;9084;50.956;3.106;2023-08-17T04:12:25;3.88;;;3.28;;
17917;SDS011;9084;50.956;3.106;2023-08-17T04:14:51;3.97;;;3.38;;
17917;SDS011;9084;50.956;3.106;2023-08-17T04:17:19;3.90;;;3.25;;
17917;SDS011;9084;50.956;3.106;2023-08-17T04:19:46;5.93;;;3.72;;
17917;SDS011;9084;50.956;3.106;2023-08-17T04:22:14;4.32;;;3.20;;
17917;SDS011;9084;50.956;3.106;2023-08-17T04:24:39;3.60;;;3.20;;
17917;SDS011;9084;50.956;3.106;2023-08-17T04:27:07;3.78;;;3.47;;
17917;SDS011;9084;50.956;3.106;2023-08-17T04:29:33;3.50;;;3.20;;
17917;SDS011;9084;50.956;3.106;2023-08-17T04:31:59;5.38;;;3.47;;
17917;SDS011;9084;50.956;3.106;2023-08-17T04:34:24;5.28;;;3.35;;
17917;SDS011;9084;50.956;3.106;2023-08-17T04:36:50;4.97;;;3.00;;
17917;SDS011;9084;50.956;3.106;2023-08-17T04:39:16;3.55;;;3.25;;
17917;SDS011;9084;50.956;3.106;2023-08-17T04:41:42;3.25;;;2.95;;
17917;SDS011;9084;50.956;3.106;2023-08-17T04:44:10;4.18;;;3.60;;
17917;SDS011;9084;50.956;3.106;2023-08-17T04:46:35;3.65;;;3.22;;
17917;SDS011;9084;50.956;3.106;2023-08-17T04:49:01;3.65;;;3.38;;
17917;SDS011;9084;50.956;3.106;2023-08-17T04:51:27;3.63;;;3.30;;
17917;SDS011;9084;50.956;3.106;2023-08-17T04:53:52;4.30;;;3.22;;
17917;SDS011;9084;50.956;3.106;2023-08-17T04:56:18;3.20;;;2.95;;
17917;SDS011;9084;50.956;3.106;2023-08-17T04:58:44;4.03;;;3.42;;
17917;SDS011;9084;50.956;3.106;2023-08-17T05:01:09;3.65;;;2.60;;
17917;SDS011;9084;50.956;3.106;2023-08-17T05:03:35;4.05;;;2.83;;
17917;SDS011;9084;50.956;3.106;2023-08-17T05:06:01;3.47;;;3.17;;
17917;SDS011;9084;50.956;3.106;2023-08-17T05:08:33;4.93;;;2.92;;
17917;SDS011;9084;50.956;3.106;2023-08-17T05:10:59;4.75;;;3.20;;
17917;SDS011;9084;50.956;3.106;2023-08-17T05:13:25;3.42;;;2.95;;
17917;SDS011;9084;50.956;3.106;2023-08-17T05:15:50;3.83;;;3.13;;
17917;SDS011;9084;50.956;3.106;2023-08-17T05:18:18;2.72;;;2.50;;
17917;SDS011;9084;50.956;3.106;2023-08-17T05:20:44;3.85;;;3.20;;
17917;SDS011;9084;50.956;3.106;2023-08-17T05:23:10;3.42;;;3.00;;
17917;SDS011;9084;50.956;3.106;2023-08-17T05:25:35;5.63;;;3.00;;
17917;SDS011;9084;50.956;3.106;2023-08-17T05:28:06;3.65;;;2.92;;
17917;SDS011;9084;50.956;3.106;2023-08-17T05:30:39;2.80;;;2.60;;
17917;SDS011;9084;50.956;3.106;2023-08-17T05:33:06;4.40;;;2.70;;
17917;SDS011;9084;50.956;3.106;2023-08-17T05:35:32;2.90;;;2.60;;
17917;SDS011;9084;50.956;3.106;2023-08-17T05:38:00;3.92;;;2.70;;
17917;SDS011;9084;50.956;3.106;2023-08-17T05:40:31;2.90;;;2.45;;
17917;SDS011;9084;50.956;3.106;2023-08-17T05:42:57;6.35;;;2.65;;
17917;SDS011;9084;50.956;3.106;2023-08-17T05:45:23;4.57;;;2.97;;
17917;SDS011;9084;50.956;3.106;2023-08-17T05:47:51;3.30;;;2.85;;
17917;SDS011;9084;50.956;3.106;2023-08-17T05:50:17;5.00;;;2.72;;
17917;SDS011;9084;50.956;3.106;2023-08-17T05:52:43;3.53;;;3.10;;
17917;SDS011;9084;50.956;3.106;2023-08-17T05:55:11;7.03;;;3.47;;
17917;SDS011;9084;50.956;3.106;2023-08-17T05:57:39;4.65;;;2.85;;
17917;SDS011;9084;50.956;3.106;2023-08-17T06:00:04;4.63;;;2.80;;
17917;SDS011;9084;50.956;3.106;2023-08-17T06:02:31;5.43;;;2.47;;
17917;SDS011;9084;50.956;3.106;2023-08-17T06:04:56;2.50;;;2.30;;
17917;SDS011;9084;50.956;3.106;2023-08-17T06:07:26;4.38;;;2.97;;
17917;SDS011;9084;50.956;3.106;2023-08-17T06:09:52;4.13;;;3.17;;
17917;SDS011;9084;50.956;3.106;2023-08-17T06:12:18;5.35;;;2.70;;
17917;SDS011;9084;50.956;3.106;2023-08-17T06:14:44;4.05;;;2.83;;
17917;SDS011;9084;50.956;3.106;2023-08-17T06:17:09;2.63;;;2.42;;
17917;SDS011;9084;50.956;3.106;2023-08-17T06:19:37;6.53;;;2.90;;
17917;SDS011;9084;50.956;3.106;2023-08-17T06:22:05;4.68;;;2.60;;
17917;SDS011;9084;50.956;3.106;2023-08-17T06:24:31;4.13;;;3.20;;
17917;SDS011;9084;50.956;3.106;2023-08-17T06:26:57;2.97;;;2.42;;
17917;SDS011;9084;50.956;3.106;2023-08-17T06:29:22;3.08;;;2.78;;
17917;SDS011;9084;50.956;3.106;2023-08-17T06:31:50;2.88;;;2.55;;
17917;SDS011;9084;50.956;3.106;2023-08-17T06:34:16;4.85;;;2.80;;
17917;SDS011;9084;50.956;3.106;2023-08-17T06:36:56;3.58;;;2.72;;
17917;SDS011;9084;50.956;3.106;2023-08-17T06:39:29;4.82;;;2.90;;
17917;SDS011;9084;50.956;3.106;2023-08-17T06:41:56;4.65;;;2.60;;
17917;SDS011;9084;50.956;3.106;2023-08-17T06:44:22;6.13;;;2.50;;
17917;SDS011;9084;50.956;3.106;2023-08-17T06:46:48;2.83;;;2.45;;
17917;SDS011;9084;50.956;3.106;2023-08-17T06:49:13;4.15;;;2.63;;
17917;SDS011;9084;50.956;3.106;2023-08-17T06:51:39;4.13;;;2.60;;
17917;SDS011;9084;50.956;3.106;2023-08-17T06:54:06;2.63;;;2.42;;
17917;SDS011;9084;50.956;3.106;2023-08-17T06:56:35;3.50;;;2.13;;
17917;SDS011;9084;50.956;3.106;2023-08-17T06:59:03;4.03;;;2.65;;
17917;SDS011;9084;50.956;3.106;2023-08-17T07:01:28;3.97;;;2.50;;
17917;SDS011;9084;50.956;3.106;2023-08-17T07:03:54;2.75;;;2.35;;
17917;SDS011;9084;50.956;3.106;2023-08-17T07:06:21;3.00;;;2.28;;
17917;SDS011;9084;50.956;3.106;2023-08-17T07:08:48;3.05;;;2.28;;
17917;SDS011;9084;50.956;3.106;2023-08-17T07:11:19;5.03;;;2.35;;
17917;SDS011;9084;50.956;3.106;2023-08-17T07:13:48;3.55;;;2.53;;
17917;SDS011;9084;50.956;3.106;2023-08-17T07:16:13;4.07;;;2.30;;
17917;SDS011;9084;50.956;3.106;2023-08-17T07:18:39;5.07;;;2.55;;
17917;SDS011;9084;50.956;3.106;2023-08-17T07:21:07;5.45;;;2.50;;
17917;SDS011;9084;50.956;3.106;2023-08-17T07:23:33;2.85;;;2.60;;
17917;SDS011;9084;50.956;3.106;2023-08-17T07:26:00;2.90;;;2.60;;
17917;SDS011;9084;50.956;3.106;2023-08-17T07:28:26;4.68;;;2.35;;
17917;SDS011;9084;50.956;3.106;2023-08-17T07:30:53;3.83;;;2.30;;
17917;SDS011;9084;50.956;3.106;2023-08-17T07:33:18;3.40;;;2.95;;
17917;SDS011;9084;50.956;3.106;2023-08-17T07:35:44;4.93;;;2.53;;
17917;SDS011;9084;50.956;3.106;2023-08-17T07:38:09;3.85;;;2.85;;
17917;SDS011;9084;50.956;3.106;2023-08-17T07:40:37;3.35;;;2.75;;
17917;SDS011;9084;50.956;3.106;2023-08-17T07:43:06;2.58;;;2.13;;
17917;SDS011;9084;50.956;3.106;2023-08-17T07:45:31;3.53;;;2.63;;
17917;SDS011;9084;50.956;3.106;2023-08-17T07:47:59;3.72;;;2.20;;
17917;SDS011;9084;50.956;3.106;2023-08-17T07:50:28;3.13;;;2.15;;
17917;SDS011;9084;50.956;3.106;2023-08-17T07:52:53;5.85;;;2.72;;
17917;SDS011;9084;50.956;3.106;2023-08-17T07:55:19;2.65;;;2.20;;
17917;SDS011;9084;50.956;3.106;2023-08-17T07:57:44;5.38;;;2.40;;
17917;SDS011;9084;50.956;3.106;2023-08-17T08:00:10;3.60;;;2.55;;
17917;SDS011;9084;50.956;3.106;2023-08-17T08:02:36;3.08;;;2.65;;
17917;SDS011;9084;50.956;3.106;2023-08-17T08:05:02;3.60;;;2.42;;
17917;SDS011;9084;50.956;3.106;2023-08-17T08:07:30;4.15;;;2.65;;
17917;SDS011;9084;50.956;3.106;2023-08-17T08:09:56;3.35;;;2.30;;
17917;SDS011;9084;50.956;3.106;2023-08-17T08:12:22;3.08;;;2.45;;
17917;SDS011;9084;50.956;3.106;2023-08-17T08:14:47;2.83;;;2.50;;
17917;SDS011;9084;50.956;3.106;2023-08-17T08:17:18;5.72;;;2.72;;
17917;SDS011;9084;50.956;3.106;2023-08-17T08:19:44;3.35;;;2.70;;
17917;SDS011;9084;50.956;3.106;2023-08-17T08:22:12;6.65;;;2.88;;
17917;SDS011;9084;50.956;3.106;2023-08-17T08:24:40;4.43;;;3.28;;
17917;SDS011;9084;50.956;3.106;2023-08-17T08:27:06;5.63;;;2.88;;
17917;SDS011;9084;50.956;3.106;2023-08-17T08:29:32;4.22;;;2.40;;
17917;SDS011;9084;50.956;3.106;2023-08-17T08:32:00;3.80;;;2.58;;
17917;SDS011;9084;50.956;3.106;2023-08-17T08:34:29;3.17;;;2.80;;
17917;SDS011;9084;50.956;3.106;2023-08-17T08:36:55;2.95;;;2.58;;
17917;SDS011;9084;50.956;3.106;2023-08-17T08:39:21;7.57;;;2.75;;
17917;SDS011;9084;50.956;3.106;2023-08-17T08:41:46;5.55;;;3.20;;
17917;SDS011;9084;50.956;3.106;2023-08-17T08:44:12;3.22;;;2.47;;
17917;SDS011;9084;50.956;3.106;2023-08-17T08:46:39;3.45;;;2.75;;
17917;SDS011;9084;50.956;3.106;2023-08-17T08:49:09;2.67;;;2.42;;
17917;SDS011;9084;50.956;3.106;2023-08-17T08:51:38;2.67;;;2.35;;
17917;SDS011;9084;50.956;3.106;2023-08-17T08:54:11;4.22;;;2.33;;
17917;SDS011;9084;50.956;3.106;2023-08-17T08:56:38;5.30;;;2.80;;
17917;SDS011;9084;50.956;3.106;2023-08-17T08:59:08;3.78;;;2.63;;
17917;SDS011;9084;50.956;3.106;2023-08-17T09:01:35;3.00;;;2.65;;
17917;SDS011;9084;50.956;3.106;2023-08-17T09:04:01;3.80;;;3.00;;
17917;SDS011;9084;50.956;3.106;2023-08-17T09:06:33;4.60;;;2.63;;
17917;SDS011;9084;50.956;3.106;2023-08-17T09:09:00;3.38;;;2.70;;
17917;SDS011;9084;50.956;3.106;2023-08-17T09:11:27;4.25;;;2.70;;
17917;SDS011;9084;50.956;3.106;2023-08-17T09:13:53;3.03;;;2.65;;
17917;SDS011;9084;50.956;3.106;2023-08-17T09:16:19;2.50;;;2.25;;
17917;SDS011;9084;50.956;3.106;2023-08-17T09:18:45;3.25;;;2.40;;
17917;SDS011;9084;50.956;3.106;2023-08-17T09:21:21;4.22;;;3.50;;
17917;SDS011;9084;50.956;3.106;2023-08-17T09:23:53;5.63;;;2.20;;
17917;SDS011;9084;50.956;3.106;2023-08-17T09:26:20;3.33;;;3.03;;
17917;SDS011;9084;50.956;3.106;2023-08-17T09:28:50;3.22;;;2.80;;
17917;SDS011;9084;50.956;3.106;2023-08-17T09:31:23;2.97;;;2.67;;
17917;SDS011;9084;50.956;3.106;2023-08-17T09:33:51;5.00;;;3.10;;
17917;SDS011;9084;50.956;3.106;2023-08-17T09:36:24;3.03;;;2.50;;
17917;SDS011;9084;50.956;3.106;2023-08-17T09:38:51;4.78;;;3.10;;
17917;SDS011;9084;50.956;3.106;2023-08-17T09:41:21;3.83;;;3.20;;
17917;SDS011;9084;50.956;3.106;2023-08-17T09:43:49;4.07;;;3.20;;
17917;SDS011;9084;50.956;3.106;2023-08-17T09:46:15;3.80;;;2.97;;
17917;SDS011;9084;50.956;3.106;2023-08-17T09:48:43;3.58;;;3.28;;
17917;SDS011;9084;50.956;3.106;2023-08-17T09:51:14;4.28;;;3.13;;
17917;SDS011;9084;50.956;3.106;2023-08-17T09:53:40;5.15;;;3.20;;
17917;SDS011;9084;50.956;3.106;2023-08-17T09:56:09;4.05;;;2.95;;
17917;SDS011;9084;50.956;3.106;2023-08-17T09:58:38;3.13;;;2.83;;
17917;SDS011;9084;50.956;3.106;2023-08-17T10:01:04;3.58;;;2.65;;
17917;SDS011;9084;50.956;3.106;2023-08-17T10:03:32;4.03;;;3.20;;
17917;SDS011;9084;50.956;3.106;2023-08-17T10:06:01;4.25;;;3.00;;
17917;SDS011;9084;50.956;3.106;2023-08-17T10:08:31;4.53;;;2.97;;
17917;SDS011;9084;50.956;3.106;2023-08-17T10:11:01;3.65;;;3.20;;
17917;SDS011;9084;50.956;3.106;2023-08-17T10:13:35;4.97;;;3.72;;
17917;SDS011;9084;50.956;3.106;2023-08-17T10:16:09;3.78;;;3.00;;
17917;SDS011;9084;50.956;3.106;2023-08-17T10:19:07;4.97;;;3.03;;
17917;SDS011;9084;50.956;3.106;2023-08-17T10:22:03;4.80;;;3.70;;
17917;SDS011;9084;50.956;3.106;2023-08-17T10:24:35;3.22;;;2.80;;
17917;SDS011;9084;50.956;3.106;2023-08-17T10:27:03;3.42;;;3.10;;
17917;SDS011;9084;50.956;3.106;2023-08-17T10:29:31;4.28;;;3.88;;
17917;SDS011;9084;50.956;3.106;2023-08-17T10:32:02;4.25;;;3.83;;
17917;SDS011;9084;50.956;3.106;2023-08-17T10:34:30;4.25;;;3.78;;
17917;SDS011;9084;50.956;3.106;2023-08-17T10:36:56;6.60;;;3.53;;
17917;SDS011;9084;50.956;3.106;2023-08-17T10:39:29;4.15;;;3.60;;
17917;SDS011;9084;50.956;3.106;2023-08-17T10:41:55;3.85;;;3.42;;
17917;SDS011;9084;50.956;3.106;2023-08-17T10:47:27;5.05;;;3.78;;
17917;SDS011;9084;50.956;3.106;2023-08-17T10:52:33;5.60;;;4.40;;
17917;SDS011;9084;50.956;3.106;2023-08-17T10:55:04;4.15;;;3.72;;
17917;SDS011;9084;50.956;3.106;2023-08-17T10:57:34;4.88;;;3.35;;
17917;SDS011;9084;50.956;3.106;2023-08-17T11:02:45;3.42;;;3.10;;
17917;SDS011;9084;50.956;3.106;2023-08-17T11:05:49;3.25;;;2.95;;
17917;SDS011;9084;50.956;3.106;2023-08-17T11:08:27;4.10;;;3.80;;
17917;SDS011;9084;50.956;3.106;2023-08-17T11:11:02;4.22;;;3.53;;
17917;SDS011;9084;50.956;3.106;2023-08-17T11:13:29;4.20;;;3.35;;
17917;SDS011;9084;50.956;3.106;2023-08-17T11:16:01;4.78;;;3.45;;
17917;SDS011;9084;50.956;3.106;2023-08-17T11:18:27;5.43;;;3.72;;
17917;SDS011;9084;50.956;3.106;2023-08-17T11:20:53;3.40;;;3.08;;
17917;SDS011;9084;50.956;3.106;2023-08-17T11:23:22;5.82;;;3.38;;
17917;SDS011;9084;50.956;3.106;2023-08-17T11:25:49;3.88;;;3.58;;
17917;SDS011;9084;50.956;3.106;2023-08-17T11:28:17;7.15;;;3.33;;
17917;SDS011;9084;50.956;3.106;2023-08-17T11:30:43;3.97;;;3.42;;
17917;SDS011;9084;50.956;3.106;2023-08-17T11:33:11;4.25;;;3.28;;
17917;SDS011;9084;50.956;3.106;2023-08-17T11:35:38;3.90;;;3.08;;
17917;SDS011;9084;50.956;3.106;2023-08-17T11:38:04;3.33;;;2.90;;
17917;SDS011;9084;50.956;3.106;2023-08-17T11:40:33;4.25;;;3.28;;
17917;SDS011;9084;50.956;3.106;2023-08-17T11:42:59;3.33;;;2.85;;
17917;SDS011;9084;50.956;3.106;2023-08-17T11:45:24;4.10;;;3.55;;
17917;SDS011;9084;50.956;3.106;2023-08-17T11:47:50;3.25;;;3.00;;
17917;SDS011;9084;50.956;3.106;2023-08-17T11:50:18;3.97;;;3.58;;
17917;SDS011;9084;50.956;3.106;2023-08-17T11:52:48;5.15;;;3.30;;
17917;SDS011;9084;50.956;3.106;2023-08-17T11:55:16;5.43;;;4.32;;
17917;SDS011;9084;50.956;3.106;2023-08-17T11:57:47;4.07;;;3.42;;
17917;SDS011;9084;50.956;3.106;2023-08-17T12:00:17;3.75;;;3.45;;
17917;SDS011;9084;50.956;3.106;2023-08-17T12:02:48;7.38;;;4.07;;
17917;SDS011;9084;50.956;3.106;2023-08-17T12:05:24;5.28;;;4.10;;
17917;SDS011;9084;50.956;3.106;2023-08-17T12:07:52;6.22;;;4.22;;
17917;SDS011;9084;50.956;3.106;2023-08-17T12:10:19;4.70;;;4.30;;
17917;SDS011;9084;50.956;3.106;2023-08-17T12:12:48;5.10;;;3.88;;
17917;SDS011;9084;50.956;3.106;2023-08-17T12:15:17;6.00;;;4.65;;
17917;SDS011;9084;50.956;3.106;2023-08-17T12:17:47;5.38;;;3.90;;
17917;SDS011;9084;50.956;3.106;2023-08-17T12:20:17;4.63;;;4.32;;
17917;SDS011;9084;50.956;3.106;2023-08-17T12:22:46;5.68;;;5.28;;
17917;SDS011;9084;50.956;3.106;2023-08-17T12:25:12;4.40;;;4.00;;
17917;SDS011;9084;50.956;3.106;2023-08-17T12:27:41;6.75;;;5.55;;
17917;SDS011;9084;50.956;3.106;2023-08-17T12:30:16;6.05;;;5.50;;
17917;SDS011;9084;50.956;3.106;2023-08-17T12:32:57;5.75;;;5.18;;
17917;SDS011;9084;50.956;3.106;2023-08-17T12:35:23;6.22;;;5.63;;
17917;SDS011;9084;50.956;3.106;2023-08-17T12:37:50;7.22;;;4.85;;
17917;SDS011;9084;50.956;3.106;2023-08-17T12:40:16;5.32;;;4.88;;
17917;SDS011;9084;50.956;3.106;2023-08-17T12:42:42;6.68;;;5.95;;
17917;SDS011;9084;50.956;3.106;2023-08-17T12:45:09;5.15;;;4.68;;
17917;SDS011;9084;50.956;3.106;2023-08-17T12:47:35;5.00;;;4.60;;
17917;SDS011;9084;50.956;3.106;2023-08-17T12:50:03;6.50;;;4.20;;
17917;SDS011;9084;50.956;3.106;2023-08-17T12:52:29;5.88;;;5.20;;
17917;SDS011;9084;50.956;3.106;2023-08-17T12:54:55;5.90;;;5.32;;
17917;SDS011;9084;50.956;3.106;2023-08-17T12:57:23;4.75;;;4.35;;
17917;SDS011;9084;50.956;3.106;2023-08-17T12:59:49;6.32;;;4.55;;
17917;SDS011;9084;50.956;3.106;2023-08-17T13:02:15;6.32;;;5.72;;
17917;SDS011;9084;50.956;3.106;2023-08-17T13:04:42;5.57;;;5.07;;
17917;SDS011;9084;50.956;3.106;2023-08-17T13:07:11;6.78;;;6.18;;
17917;SDS011;9084;50.956;3.106;2023-08-17T13:09:40;5.43;;;4.93;;
17917;SDS011;9084;50.956;3.106;2023-08-17T13:12:11;6.80;;;6.20;;
17917;SDS011;9084;50.956;3.106;2023-08-17T13:14:37;6.63;;;4.90;;
17917;SDS011;9084;50.956;3.106;2023-08-17T13:17:05;7.00;;;6.32;;
17917;SDS011;9084;50.956;3.106;2023-08-17T13:19:30;7.53;;;6.90;;
17917;SDS011;9084;50.956;3.106;2023-08-17T13:21:56;7.15;;;6.05;;
17917;SDS011;9084;50.956;3.106;2023-08-17T13:24:22;6.22;;;5.68;;
17917;SDS011;9084;50.956;3.106;2023-08-17T13:26:50;6.68;;;5.95;;
17917;SDS011;9084;50.956;3.106;2023-08-17T13:29:18;6.05;;;5.50;;
17917;SDS011;9084;50.956;3.106;2023-08-17T13:31:46;8.00;;;6.72;;
17917;SDS011;9084;50.956;3.106;2023-08-17T13:34:12;6.40;;;5.90;;
17917;SDS011;9084;50.956;3.106;2023-08-17T13:36:38;8.80;;;8.00;;
17917;SDS011;9084;50.956;3.106;2023-08-17T13:39:04;9.27;;;8.45;;
17917;SDS011;9084;50.956;3.106;2023-08-17T13:41:31;10.00;;;9.15;;
17917;SDS011;9084;50.956;3.106;2023-08-17T13:43:56;8.30;;;7.60;;
17917;SDS011;9084;50.956;3.106;2023-08-17T13:46:22;9.82;;;9.02;;
17917;SDS011;9084;50.956;3.106;2023-08-17T13:48:48;7.65;;;7.10;;
17917;SDS011;9084;50.956;3.106;2023-08-17T13:51:14;9.73;;;7.20;;
17917;SDS011;9084;50.956;3.106;2023-08-17T13:53:39;8.57;;;7.78;;
17917;SDS011;9084;50.956;3.106;2023-08-17T13:56:05;8.40;;;6.55;;
17917;SDS011;9084;50.956;3.106;2023-08-17T13:58:31;8.65;;;7.65;;
17917;SDS011;9084;50.956;3.106;2023-08-17T14:00:56;9.35;;;8.43;;
17917;SDS011;9084;50.956;3.106;2023-08-17T14:03:22;9.38;;;8.50;;
17917;SDS011;9084;50.956;3.106;2023-08-17T14:05:48;7.63;;;7.03;;
17917;SDS011;9084;50.956;3.106;2023-08-17T14:08:14;8.45;;;7.65;;
17917;SDS011;9084;50.956;3.106;2023-08-17T14:10:40;11.30;;;10.23;;
17917;SDS011;9084;50.956;3.106;2023-08-17T14:13:08;7.88;;;7.28;;
17917;SDS011;9084;50.956;3.106;2023-08-17T14:15:33;9.27;;;8.38;;
17917;SDS011;9084;50.956;3.106;2023-08-17T14:18:02;10.70;;;9.45;;
17917;SDS011;9084;50.956;3.106;2023-08-17T14:20:28;10.02;;;9.02;;
17917;SDS011;9084;50.956;3.106;2023-08-17T14:22:54;9.75;;;8.30;;
17917;SDS011;9084;50.956;3.106;2023-08-17T14:25:20;8.02;;;7.32;;
17917;SDS011;9084;50.956;3.106;2023-08-17T14:27:48;9.30;;;8.40;;
17917;SDS011;9084;50.956;3.106;2023-08-17T14:30:16;9.57;;;8.65;;
17917;SDS011;9084;50.956;3.106;2023-08-17T14:32:42;10.18;;;9.07;;
17917;SDS011;9084;50.956;3.106;2023-08-17T14:35:12;8.73;;;8.00;;
17917;SDS011;9084;50.956;3.106;2023-08-17T14:37:40;9.40;;;8.45;;
17917;SDS011;9084;50.956;3.106;2023-08-17T14:40:06;10.30;;;9.30;;
17917;SDS011;9084;50.956;3.106;2023-08-17T14:42:32;8.82;;;8.02;;
17917;SDS011;9084;50.956;3.106;2023-08-17T14:44:57;11.95;;;10.85;;
17917;SDS011;9084;50.956;3.106;2023-08-17T14:47:23;10.80;;;9.77;;
17917;SDS011;9084;50.956;3.106;2023-08-17T14:49:49;10.02;;;9.07;;
17917;SDS011;9084;50.956;3.106;2023-08-17T14:52:14;9.82;;;8.82;;
17917;SDS011;9084;50.956;3.106;2023-08-17T14:54:40;10.27;;;9.40;;
17917;SDS011;9084;50.956;3.106;2023-08-17T14:57:06;10.75;;;9.82;;
17917;SDS011;9084;50.956;3.106;2023-08-17T14:59:31;8.68;;;7.88;;
17917;SDS011;9084;50.956;3.106;2023-08-17T15:01:57;12.48;;;11.20;;
17917;SDS011;9084;50.956;3.106;2023-08-17T15:04:23;11.25;;;10.35;;
17917;SDS011;9084;50.956;3.106;2023-08-17T15:06:48;14.98;;;13.68;;
17917;SDS011;9084;50.956;3.106;2023-08-17T15:09:14;15.35;;;13.88;;
17917;SDS011;9084;50.956;3.106;2023-08-17T15:11:39;15.35;;;14.10;;